MSG 146
On 2020-10-30
@ 07:47:59
31.8°c
Humidity (%)

73.0

Pressure (Pa)

101569.73

Light (%)

32.0

# Identifier Timestamp Temp (°C) SD Humidity (%) SD Pressure (Pa) SD Light (%) SD
147 146 2020-10-30 07:47:59 31.8 0.0 73.0 0.0 101569.73 17.0 32.0 0.0
146 145 2020-10-30 07:47:27 31.79 0.1 73.0 0.0 101572.0 14.0 32.87 1.32
145 144 2020-10-30 07:46:54 31.64 0.34 73.0 0.0 101570.33 8.08 32.87 1.32
144 143 2020-10-30 07:46:21 31.63 0.23 73.0 0.0 101573.73 13.53 32.4 1.9
143 142 2020-10-30 07:45:49 31.6 0.28 73.0 0.0 101569.8 14.37 32.07 0.97
142 141 2020-10-30 07:45:17 31.67 0.3 73.0 0.0 101570.07 13.45 32.0 0.0
141 140 2020-10-30 07:44:44 31.77 0.17 73.0 0.0 101569.73 11.87 32.0 0.0
140 139 2020-10-30 07:44:12 31.8 0.0 73.0 0.0 101568.33 16.04 32.0 0.0
139 138 2020-10-30 07:43:39 31.8 0.0 73.0 0.0 101570.07 13.0 32.0 0.0
138 137 2020-10-30 07:43:07 31.8 0.0 73.0 0.0 101572.33 14.26 32.0 0.0
137 136 2020-10-30 07:42:35 31.79 0.1 73.0 0.0 101568.87 15.16 32.0 0.0
136 135 2020-10-30 07:42:02 31.73 0.33 73.0 0.0 101569.4 17.25 31.4 1.9
135 134 2020-10-30 07:41:30 31.56 0.24 73.0 0.0 101567.13 13.03 31.0 0.0
134 133 2020-10-30 07:40:58 31.64 0.34 73.0 0.0 101563.4 11.98 31.0 0.0
133 132 2020-10-30 07:40:25 31.78 0.15 73.0 0.0 101567.33 12.3 31.6 1.9
132 131 2020-10-30 07:39:53 31.78 0.15 73.0 0.0 101565.4 13.33 31.87 1.32
131 130 2020-10-30 07:39:21 31.62 0.25 73.0 0.0 101566.33 13.01 31.27 1.71
130 129 2020-10-30 07:38:48 31.51 0.19 73.0 0.0 101564.2 14.37 31.07 0.97
129 128 2020-10-30 07:38:16 31.5 0.0 73.0 0.0 101566.07 16.52 31.47 1.93
128 127 2020-10-30 07:37:43 31.62 0.43 73.0 0.0 101565.93 11.0 31.0 0.0